Time;durP1;ratioP1;P1;durP2;ratioP2;P2;SDS_P1;SDS_P2;PMS_P1;PMS_P2;Temp;Humidity;BMP_temperature;BMP_pressure;BME280_temperature;BME280_humidity;BME280_pressure;Samples;Min_cycle;Max_cycle;Signal;HPM_P1;HPM_P2
2024/01/28 00:01:15;;;;;;;19.47;6.90;;;;;;;;;;5073821;28;20323;-27
2024/01/28 00:03:40;;;;;;;21.33;6.90;;;;;;;;;;5073704;28;20370;-27
2024/01/28 00:06:06;;;;;;;18.17;6.60;;;;;;;;;;5074213;28;20275;-27
2024/01/28 00:08:31;;;;;;;20.45;7.32;;;;;;;;;;5073741;28;20651;-27
2024/01/28 00:10:56;;;;;;;22.13;6.80;;;;;;;;;;5073968;28;20510;-27
2024/01/28 00:13:24;;;;;;;19.90;7.00;;;;;;;;;;5073675;28;20021;-27
2024/01/28 00:15:49;;;;;;;20.85;6.97;;;;;;;;;;5073902;28;20016;-27
2024/01/28 00:18:15;;;;;;;20.35;6.70;;;;;;;;;;5073593;28;20024;-27
2024/01/28 00:20:40;;;;;;;24.47;7.07;;;;;;;;;;5074146;28;20048;-27
2024/01/28 00:23:05;;;;;;;20.70;6.93;;;;;;;;;;5073518;28;20734;-27
2024/01/28 00:25:30;;;;;;;15.10;6.63;;;;;;;;;;5073739;28;20304;-28
2024/01/28 00:27:55;;;;;;;22.07;7.80;;;;;;;;;;5073380;28;20764;-27
2024/01/28 00:30:20;;;;;;;20.48;7.57;;;;;;;;;;5073393;28;20243;-27
2024/01/28 00:32:46;;;;;;;17.85;7.55;;;;;;;;;;5073975;28;20070;-27
2024/01/28 00:35:11;;;;;;;15.93;7.22;;;;;;;;;;5073396;28;20042;-27
2024/01/28 00:37:36;;;;;;;18.02;7.10;;;;;;;;;;5073390;28;20013;-28
2024/01/28 00:40:03;;;;;;;17.02;7.25;;;;;;;;;;5073608;28;20036;-27
2024/01/28 00:42:28;;;;;;;21.08;7.53;;;;;;;;;;5074172;28;20100;-27
2024/01/28 00:44:54;;;;;;;16.95;6.80;;;;;;;;;;5073242;28;20111;-27
2024/01/28 00:47:19;;;;;;;19.63;6.83;;;;;;;;;;5073947;28;20017;-27
2024/01/28 00:49:44;;;;;;;17.75;7.22;;;;;;;;;;5072004;28;20270;-27
2024/01/28 00:52:09;;;;;;;25.08;6.93;;;;;;;;;;5073301;28;20031;-27
2024/01/28 00:54:34;;;;;;;18.17;6.53;;;;;;;;;;5073490;28;20024;-27
2024/01/28 00:57:00;;;;;;;21.60;7.40;;;;;;;;;;5073170;28;20484;-27
2024/01/28 00:59:25;;;;;;;21.42;7.35;;;;;;;;;;5073173;28;20025;-27
2024/01/28 01:01:52;;;;;;;16.87;6.50;;;;;;;;;;5073304;28;20021;-27
2024/01/28 01:04:17;;;;;;;21.48;6.70;;;;;;;;;;5072068;28;20625;-27
2024/01/28 01:06:43;;;;;;;18.92;6.38;;;;;;;;;;5073355;28;20017;-27
2024/01/28 01:09:08;;;;;;;16.58;6.18;;;;;;;;;;5073419;28;20016;-27
2024/01/28 01:11:33;;;;;;;24.05;6.38;;;;;;;;;;5072962;28;20074;-27
2024/01/28 01:13:59;;;;;;;21.13;6.68;;;;;;;;;;5073063;28;20364;-28
2024/01/28 01:16:24;;;;;;;12.80;5.50;;;;;;;;;;5073311;28;20021;-27
2024/01/28 01:18:49;;;;;;;19.80;6.55;;;;;;;;;;5073207;28;20042;-27
2024/01/28 01:21:15;;;;;;;18.02;6.70;;;;;;;;;;5073283;28;20028;-27
2024/01/28 01:23:40;;;;;;;17.65;6.07;;;;;;;;;;5073057;28;20100;-27
2024/01/28 01:26:05;;;;;;;17.20;6.23;;;;;;;;;;5074722;28;20060;-27
2024/01/28 01:28:33;;;;;;;18.25;6.30;;;;;;;;;;5077025;28;20587;-27
2024/01/28 01:30:59;;;;;;;15.15;5.80;;;;;;;;;;5076624;28;20095;-27
2024/01/28 01:33:24;;;;;;;16.60;5.95;;;;;;;;;;5077172;28;20104;-27
2024/01/28 01:35:50;;;;;;;22.08;5.95;;;;;;;;;;5076875;28;20013;-27
2024/01/28 01:38:15;;;;;;;22.95;6.13;;;;;;;;;;5077090;28;20438;-28
2024/01/28 01:40:40;;;;;;;17.63;6.13;;;;;;;;;;5076569;28;20475;-28
2024/01/28 01:43:11;;;;;;;23.90;6.47;;;;;;;;;;5076728;28;20047;-27
2024/01/28 01:45:41;;;;;;;19.38;5.70;;;;;;;;;;5076355;28;20472;-27
2024/01/28 01:48:12;;;;;;;20.60;6.30;;;;;;;;;;5076657;28;20125;-27
2024/01/28 01:50:39;;;;;;;18.48;6.60;;;;;;;;;;5076344;28;20506;-27
2024/01/28 01:53:04;;;;;;;20.15;6.10;;;;;;;;;;5076525;28;20051;-28
2024/01/28 01:55:30;;;;;;;19.27;6.22;;;;;;;;;;5076840;28;20467;-28
2024/01/28 01:57:56;;;;;;;15.20;5.90;;;;;;;;;;5076192;28;20111;-27
2024/01/28 02:00:22;;;;;;;22.48;6.25;;;;;;;;;;5076214;28;20071;-28
2024/01/28 02:02:47;;;;;;;20.17;6.35;;;;;;;;;;5075959;28;20047;-28
2024/01/28 02:05:12;;;;;;;17.10;6.57;;;;;;;;;;5075542;28;20017;-27
2024/01/28 02:07:38;;;;;;;20.77;6.40;;;;;;;;;;5075778;28;20286;-27
2024/01/28 02:10:05;;;;;;;16.98;6.15;;;;;;;;;;5075536;28;20019;-27
2024/01/28 02:12:30;;;;;;;16.63;6.35;;;;;;;;;;5075344;28;20027;-28
2024/01/28 02:15:05;;;;;;;23.83;6.30;;;;;;;;;;5075703;28;20092;-27
2024/01/28 02:17:30;;;;;;;19.70;6.50;;;;;;;;;;5075602;28;20371;-28
2024/01/28 02:19:56;;;;;;;16.00;5.85;;;;;;;;;;5075784;28;20024;-27
2024/01/28 02:22:21;;;;;;;19.47;6.17;;;;;;;;;;5075788;28;20099;-27
2024/01/28 02:24:46;;;;;;;14.63;5.90;;;;;;;;;;5075666;28;20297;-27
2024/01/28 02:27:11;;;;;;;18.45;6.20;;;;;;;;;;5075732;28;20293;-27
2024/01/28 02:29:36;;;;;;;17.63;5.83;;;;;;;;;;5075575;28;20022;-27
2024/01/28 02:32:01;;;;;;;22.37;5.97;;;;;;;;;;5076139;28;20251;-27
2024/01/28 02:34:27;;;;;;;14.88;5.95;;;;;;;;;;5075772;28;20667;-27
2024/01/28 02:36:52;;;;;;;16.98;6.28;;;;;;;;;;5074887;28;20096;-27
2024/01/28 02:39:17;;;;;;;17.70;6.23;;;;;;;;;;5075218;28;20043;-27
2024/01/28 02:41:42;;;;;;;22.20;5.70;;;;;;;;;;5075474;28;20243;-27
2024/01/28 02:44:07;;;;;;;22.05;6.40;;;;;;;;;;5075364;28;20017;-27
2024/01/28 02:46:33;;;;;;;18.93;6.07;;;;;;;;;;5075464;28;20032;-28
2024/01/28 02:48:58;;;;;;;16.25;6.00;;;;;;;;;;5075573;28;20261;-27
2024/01/28 02:51:23;;;;;;;13.57;6.50;;;;;;;;;;5075289;28;20157;-27
2024/01/28 02:53:48;;;;;;;16.90;5.95;;;;;;;;;;5075729;28;20255;-28
2024/01/28 02:56:13;;;;;;;19.38;6.22;;;;;;;;;;5075202;28;20037;-27
2024/01/28 02:58:38;;;;;;;21.13;7.30;;;;;;;;;;5075669;28;20028;-27
2024/01/28 03:01:04;;;;;;;17.65;6.93;;;;;;;;;;5075015;28;20032;-27
2024/01/28 03:03:30;;;;;;;17.58;6.72;;;;;;;;;;5075439;28;20084;-27
2024/01/28 03:05:55;;;;;;;11.68;6.15;;;;;;;;;;5074855;28;20063;-27
2024/01/28 03:08:20;;;;;;;20.73;6.72;;;;;;;;;;5075456;28;20017;-28
2024/01/28 03:10:45;;;;;;;22.20;6.60;;;;;;;;;;5074908;28;20067;-27
2024/01/28 03:13:10;;;;;;;20.23;7.00;;;;;;;;;;5074786;28;20258;-28
2024/01/28 03:15:35;;;;;;;20.35;6.93;;;;;;;;;;5075039;28;20258;-28
2024/01/28 03:18:01;;;;;;;19.80;7.17;;;;;;;;;;5074733;28;20016;-27
2024/01/28 03:20:27;;;;;;;17.15;7.07;;;;;;;;;;5075197;28;20282;-27
2024/01/28 03:22:52;;;;;;;15.38;6.45;;;;;;;;;;5074651;28;20043;-27
2024/01/28 03:25:17;;;;;;;18.40;6.73;;;;;;;;;;5074483;28;20107;-27
2024/01/28 03:27:42;;;;;;;16.92;6.68;;;;;;;;;;5074793;28;20254;-27
2024/01/28 03:30:08;;;;;;;17.27;7.00;;;;;;;;;;5074681;28;20371;-27
2024/01/28 03:32:33;;;;;;;21.45;7.18;;;;;;;;;;5074727;28;20021;-28
2024/01/28 03:35:00;;;;;;;18.42;7.03;;;;;;;;;;5074662;28;20448;-27
2024/01/28 03:37:26;;;;;;;16.60;6.97;;;;;;;;;;5074270;28;20024;-28
2024/01/28 03:39:51;;;;;;;13.30;6.07;;;;;;;;;;5074305;28;20529;-28
2024/01/28 03:42:16;;;;;;;15.82;6.43;;;;;;;;;;5074762;28;20267;-27
2024/01/28 03:44:41;;;;;;;26.50;6.60;;;;;;;;;;5074104;28;20483;-27
2024/01/28 03:47:06;;;;;;;23.17;7.40;;;;;;;;;;5074123;28;20246;-27
2024/01/28 03:49:31;;;;;;;15.82;6.15;;;;;;;;;;5074065;28;20490;-27
2024/01/28 03:51:57;;;;;;;20.73;6.28;;;;;;;;;;5074060;28;20407;-28
2024/01/28 03:54:22;;;;;;;16.45;6.45;;;;;;;;;;5074106;28;20016;-27
2024/01/28 03:56:47;;;;;;;18.03;7.00;;;;;;;;;;5074007;28;20031;-28
2024/01/28 03:59:13;;;;;;;15.90;6.50;;;;;;;;;;5074233;28;20279;-27
2024/01/28 04:01:39;;;;;;;21.35;7.38;;;;;;;;;;5074120;28;20263;-28
2024/01/28 04:04:04;;;;;;;16.42;6.57;;;;;;;;;;5073715;28;20058;-27
2024/01/28 04:06:29;;;;;;;18.40;6.20;;;;;;;;;;5073740;28;20020;-29
2024/01/28 04:08:55;;;;;;;13.40;6.47;;;;;;;;;;5074286;28;20016;-27
2024/01/28 04:11:27;;;;;;;19.27;6.10;;;;;;;;;;5073888;28;20251;-27
2024/01/28 04:13:56;;;;;;;18.60;6.50;;;;;;;;;;5073943;28;20028;-28
2024/01/28 04:16:21;;;;;;;13.65;6.30;;;;;;;;;;5073877;28;20491;-27
2024/01/28 04:18:47;;;;;;;18.25;6.00;;;;;;;;;;5073453;28;20104;-28
2024/01/28 04:21:12;;;;;;;20.10;6.63;;;;;;;;;;5073486;28;20035;-28
2024/01/28 04:23:39;;;;;;;14.57;6.03;;;;;;;;;;5073736;28;20021;-27
2024/01/28 04:26:04;;;;;;;14.50;6.47;;;;;;;;;;5073393;28;20032;-27
2024/01/28 04:28:29;;;;;;;20.23;6.65;;;;;;;;;;5073707;28;20118;-27
2024/01/28 04:30:54;;;;;;;16.50;6.20;;;;;;;;;;5073816;28;20095;-27
2024/01/28 04:33:19;;;;;;;16.70;5.87;;;;;;;;;;5073752;28;20269;-27
2024/01/28 04:35:45;;;;;;;23.00;6.10;;;;;;;;;;5073503;28;20702;-27
2024/01/28 04:38:10;;;;;;;13.57;6.27;;;;;;;;;;5073457;28;20251;-27
2024/01/28 04:40:35;;;;;;;15.63;6.13;;;;;;;;;;5073429;28;20391;-27
2024/01/28 04:43:00;;;;;;;14.45;6.03;;;;;;;;;;5073342;28;20251;-27
2024/01/28 04:45:26;;;;;;;14.15;6.40;;;;;;;;;;5073503;28;20494;-27
2024/01/28 04:47:51;;;;;;;14.25;5.82;;;;;;;;;;5073572;28;20036;-27
2024/01/28 04:50:16;;;;;;;13.63;5.68;;;;;;;;;;5073659;28;20101;-27
2024/01/28 04:52:41;;;;;;;17.48;6.03;;;;;;;;;;5073449;28;20017;-29
2024/01/28 04:55:07;;;;;;;17.08;5.35;;;;;;;;;;5073187;28;20032;-27
2024/01/28 04:57:32;;;;;;;12.63;5.43;;;;;;;;;;5073469;28;20029;-27
2024/01/28 04:59:58;;;;;;;15.60;5.50;;;;;;;;;;5073889;28;20021;-28
2024/01/28 05:02:23;;;;;;;14.90;5.85;;;;;;;;;;5076565;28;20051;-28
2024/01/28 05:04:48;;;;;;;19.97;5.80;;;;;;;;;;5077267;28;20379;-27
2024/01/28 05:07:13;;;;;;;12.87;6.33;;;;;;;;;;5077505;28;20298;-28
2024/01/28 05:09:39;;;;;;;11.52;5.90;;;;;;;;;;5077447;28;20709;-28
2024/01/28 05:12:05;;;;;;;15.93;5.87;;;;;;;;;;5077221;28;20012;-27
2024/01/28 05:14:30;;;;;;;16.70;5.93;;;;;;;;;;5077377;28;20259;-27
2024/01/28 05:16:58;;;;;;;11.98;5.70;;;;;;;;;;5076960;28;20023;-27
2024/01/28 05:19:23;;;;;;;14.98;5.53;;;;;;;;;;5077274;28;20024;-28
2024/01/28 05:21:48;;;;;;;14.13;6.10;;;;;;;;;;5076933;28;20452;-28
2024/01/28 05:24:13;;;;;;;15.00;5.75;;;;;;;;;;5077464;28;20286;-27
2024/01/28 05:26:38;;;;;;;22.00;7.93;;;;;;;;;;5076747;28;20024;-27
2024/01/28 05:29:05;;;;;;;16.10;6.70;;;;;;;;;;5077107;28;20338;-27
2024/01/28 05:31:30;;;;;;;15.00;6.55;;;;;;;;;;5077047;28;20032;-27
2024/01/28 05:33:56;;;;;;;16.58;5.63;;;;;;;;;;5076673;28;20020;-28
2024/01/28 05:36:21;;;;;;;14.47;5.70;;;;;;;;;;5076691;28;20024;-28
2024/01/28 05:38:47;;;;;;;13.38;5.18;;;;;;;;;;5076914;28;20259;-27
2024/01/28 05:41:12;;;;;;;13.82;4.75;;;;;;;;;;5077112;28;20058;-28
2024/01/28 05:43:38;;;;;;;14.23;5.43;;;;;;;;;;5076832;28;20367;-28
2024/01/28 05:46:03;;;;;;;13.48;5.55;;;;;;;;;;5076649;28;20059;-27
2024/01/28 05:48:29;;;;;;;13.98;5.20;;;;;;;;;;5076990;28;20020;-27
2024/01/28 05:50:54;;;;;;;13.63;5.15;;;;;;;;;;5076908;28;20054;-27
2024/01/28 05:53:19;;;;;;;15.02;5.50;;;;;;;;;;5076620;28;20043;-27
2024/01/28 05:55:44;;;;;;;12.40;5.15;;;;;;;;;;5076296;28;20017;-27
2024/01/28 05:58:09;;;;;;;22.30;5.63;;;;;;;;;;5076227;28;20495;-27
2024/01/28 06:00:35;;;;;;;17.13;5.75;;;;;;;;;;5076435;28;20262;-27
2024/01/28 06:03:00;;;;;;;15.63;5.28;;;;;;;;;;5076195;28;20064;-27
2024/01/28 06:05:25;;;;;;;11.93;5.28;;;;;;;;;;5076600;28;20031;-27
2024/01/28 06:07:50;;;;;;;16.33;5.35;;;;;;;;;;5076375;28;20017;-28
2024/01/28 06:10:16;;;;;;;18.73;6.13;;;;;;;;;;5076050;28;20476;-27
2024/01/28 06:12:41;;;;;;;12.30;5.72;;;;;;;;;;5076005;28;20243;-27
2024/01/28 06:15:08;;;;;;;19.03;5.57;;;;;;;;;;5076556;28;20134;-27
2024/01/28 06:17:36;;;;;;;14.95;5.03;;;;;;;;;;5076228;28;20341;-27
2024/01/28 06:20:01;;;;;;;19.15;5.72;;;;;;;;;;5076150;28;20027;-27
2024/01/28 06:22:26;;;;;;;15.60;5.07;;;;;;;;;;5075836;28;20446;-27
2024/01/28 06:24:52;;;;;;;18.95;5.78;;;;;;;;;;5075715;28;20021;-27
2024/01/28 06:27:17;;;;;;;13.37;5.30;;;;;;;;;;5076297;28;20020;-27
2024/01/28 06:29:44;;;;;;;16.37;5.13;;;;;;;;;;5075764;28;20851;-27
2024/01/28 06:32:10;;;;;;;16.60;5.25;;;;;;;;;;5075904;28;20251;-27
2024/01/28 06:34:35;;;;;;;15.00;5.13;;;;;;;;;;5076094;28;20055;-27
2024/01/28 06:37:00;;;;;;;15.05;5.53;;;;;;;;;;5075852;28;20020;-27
2024/01/28 06:39:25;;;;;;;11.40;4.87;;;;;;;;;;5075472;28;20436;-27
2024/01/28 06:41:50;;;;;;;14.27;5.40;;;;;;;;;;5075495;28;20251;-28
2024/01/28 06:44:15;;;;;;;15.43;5.37;;;;;;;;;;5074077;28;20282;-27
2024/01/28 06:46:41;;;;;;;16.20;5.43;;;;;;;;;;5075622;28;20328;-27
2024/01/28 06:49:06;;;;;;;15.05;5.22;;;;;;;;;;5075587;28;20305;-27
2024/01/28 06:51:31;;;;;;;15.63;5.10;;;;;;;;;;5075851;28;20025;-27
2024/01/28 06:53:57;;;;;;;9.93;4.47;;;;;;;;;;5075714;28;20024;-28
2024/01/28 06:56:22;;;;;;;15.55;5.15;;;;;;;;;;5075510;28;20507;-27
2024/01/28 06:58:47;;;;;;;11.43;4.85;;;;;;;;;;5075101;28;20052;-27
2024/01/28 07:01:13;;;;;;;11.13;4.80;;;;;;;;;;5075401;28;20020;-27
2024/01/28 07:03:38;;;;;;;14.02;4.80;;;;;;;;;;5074865;28;20773;-27
2024/01/28 07:06:03;;;;;;;18.07;5.63;;;;;;;;;;5075047;28;20021;-27
2024/01/28 07:08:29;;;;;;;12.57;5.40;;;;;;;;;;5074869;28;20263;-28
2024/01/28 07:10:55;;;;;;;13.45;5.10;;;;;;;;;;5075198;28;20104;-27
2024/01/28 07:13:20;;;;;;;11.50;5.03;;;;;;;;;;5074698;28;20008;-27
2024/01/28 07:15:45;;;;;;;13.07;4.87;;;;;;;;;;5075115;28;20023;-27
2024/01/28 07:18:10;;;;;;;13.20;5.43;;;;;;;;;;5072842;28;20729;-27
2024/01/28 07:20:36;;;;;;;15.13;4.88;;;;;;;;;;5073583;28;20043;-27
2024/01/28 07:23:01;;;;;;;10.47;5.27;;;;;;;;;;5074851;28;20063;-27
2024/01/28 07:25:26;;;;;;;11.90;5.13;;;;;;;;;;5074211;28;20626;-27
2024/01/28 07:27:52;;;;;;;15.48;5.50;;;;;;;;;;5074780;28;20009;-27
2024/01/28 07:30:17;;;;;;;11.63;5.25;;;;;;;;;;5074690;28;20511;-27
2024/01/28 07:32:42;;;;;;;15.45;5.60;;;;;;;;;;5073999;28;20406;-27
2024/01/28 07:35:07;;;;;;;14.43;5.43;;;;;;;;;;5072280;28;20395;-27
2024/01/28 07:37:33;;;;;;;12.23;5.20;;;;;;;;;;5072158;28;20024;-28
2024/01/28 07:39:58;;;;;;;10.63;4.90;;;;;;;;;;5072168;28;20048;-28
2024/01/28 07:42:23;;;;;;;11.47;5.30;;;;;;;;;;5072123;28;20265;-27
2024/01/28 07:44:48;;;;;;;12.47;5.33;;;;;;;;;;5073757;28;20665;-28
2024/01/28 07:47:13;;;;;;;12.98;5.60;;;;;;;;;;5074360;28;20263;-27
2024/01/28 07:49:39;;;;;;;15.27;5.40;;;;;;;;;;5074734;28;20440;-27
2024/01/28 07:52:04;;;;;;;18.75;5.90;;;;;;;;;;5074100;28;20042;-27
2024/01/28 07:54:29;;;;;;;10.10;5.13;;;;;;;;;;5074034;28;20016;-27
2024/01/28 07:56:55;;;;;;;13.77;5.35;;;;;;;;;;5074023;28;20464;-27
2024/01/28 07:59:20;;;;;;;10.50;5.38;;;;;;;;;;5073775;28;20070;-27
2024/01/28 08:01:45;;;;;;;14.10;5.32;;;;;;;;;;5073561;28;20099;-29
2024/01/28 08:04:11;;;;;;;14.82;5.75;;;;;;;;;;5074352;28;20059;-27
2024/01/28 08:06:36;;;;;;;18.63;6.17;;;;;;;;;;5074022;28;20067;-27
2024/01/28 08:09:01;;;;;;;14.83;7.17;;;;;;;;;;5074297;28;20254;-28
2024/01/28 08:11:27;;;;;;;14.95;5.95;;;;;;;;;;5073709;28;20653;-27
2024/01/28 08:13:52;;;;;;;16.35;6.43;;;;;;;;;;5072557;28;20017;-27
2024/01/28 08:16:18;;;;;;;17.77;6.45;;;;;;;;;;5074026;28;20021;-27
2024/01/28 08:18:43;;;;;;;13.85;6.68;;;;;;;;;;5072280;28;20021;-28
2024/01/28 08:21:12;;;;;;;17.27;7.22;;;;;;;;;;5072483;28;20107;-28
2024/01/28 08:23:37;;;;;;;25.92;9.25;;;;;;;;;;5072272;28;20024;-29
2024/01/28 08:26:02;;;;;;;18.05;7.40;;;;;;;;;;5073975;28;20090;-28
2024/01/28 08:28:27;;;;;;;16.05;6.85;;;;;;;;;;5073452;28;20024;-28
2024/01/28 08:30:53;;;;;;;17.40;6.93;;;;;;;;;;5073959;28;20052;-28
2024/01/28 08:33:18;;;;;;;16.88;6.93;;;;;;;;;;5073471;28;20017;-28
2024/01/28 08:35:43;;;;;;;17.27;6.47;;;;;;;;;;5073110;28;20020;-28
2024/01/28 08:38:08;;;;;;;16.48;6.38;;;;;;;;;;5073553;28;20270;-28
2024/01/28 08:40:34;;;;;;;14.25;5.35;;;;;;;;;;5073384;28;20407;-28
2024/01/28 08:42:59;;;;;;;12.95;5.20;;;;;;;;;;5073924;28;20096;-28
2024/01/28 08:45:24;;;;;;;15.77;5.90;;;;;;;;;;5073529;28;20478;-28
2024/01/28 08:47:50;;;;;;;14.07;5.70;;;;;;;;;;5073315;28;20460;-28
2024/01/28 08:50:15;;;;;;;12.60;5.90;;;;;;;;;;5073278;28;20247;-28
2024/01/28 08:52:41;;;;;;;12.60;5.70;;;;;;;;;;5073479;28;20263;-28
2024/01/28 08:55:06;;;;;;;14.60;5.35;;;;;;;;;;5073194;28;20390;-28
2024/01/28 08:57:32;;;;;;;17.35;6.00;;;;;;;;;;5073165;28;20017;-28
2024/01/28 08:59:57;;;;;;;17.23;5.70;;;;;;;;;;5073157;28;20035;-28
2024/01/28 09:02:22;;;;;;;14.15;5.60;;;;;;;;;;5073206;28;20048;-28
2024/01/28 09:04:47;;;;;;;9.95;5.53;;;;;;;;;;5073309;28;20071;-28
2024/01/28 09:07:13;;;;;;;19.03;5.60;;;;;;;;;;5073127;28;20378;-28
2024/01/28 09:09:38;;;;;;;13.10;5.57;;;;;;;;;;5073312;28;20372;-28
2024/01/28 09:12:04;;;;;;;9.88;5.10;;;;;;;;;;5072977;28;20060;-28
2024/01/28 09:14:29;;;;;;;11.25;4.93;;;;;;;;;;5073287;28;20020;-28
2024/01/28 09:16:55;;;;;;;16.17;5.38;;;;;;;;;;5072901;28;20021;-28
2024/01/28 09:19:20;;;;;;;12.63;5.20;;;;;;;;;;5073544;28;20036;-28
2024/01/28 09:21:45;;;;;;;9.15;4.70;;;;;;;;;;5073194;28;20626;-27
2024/01/28 09:24:10;;;;;;;11.85;5.30;;;;;;;;;;5073252;28;20025;-27
2024/01/28 09:26:35;;;;;;;13.38;4.85;;;;;;;;;;5073297;28;20107;-28
2024/01/28 09:29:01;;;;;;;11.93;5.10;;;;;;;;;;5071604;28;20021;-28
2024/01/28 09:31:26;;;;;;;14.88;5.28;;;;;;;;;;5073260;28;20353;-27
2024/01/28 09:33:51;;;;;;;13.38;4.95;;;;;;;;;;5073408;28;20020;-27
2024/01/28 09:36:16;;;;;;;14.60;5.30;;;;;;;;;;5072866;28;20028;-27
2024/01/28 09:38:41;;;;;;;13.15;4.80;;;;;;;;;;5072871;28;20095;-27
2024/01/28 09:41:10;;;;;;;12.47;5.13;;;;;;;;;;5072808;28;20025;-27
2024/01/28 09:43:39;;;;;;;17.33;4.95;;;;;;;;;;5072682;28;20274;-27
2024/01/28 09:46:06;;;;;;;14.02;5.57;;;;;;;;;;5073764;28;20158;-28
2024/01/28 09:48:32;;;;;;;10.65;4.80;;;;;;;;;;5076734;28;20027;-28
2024/01/28 09:50:57;;;;;;;9.63;4.50;;;;;;;;;;5076438;28;20016;-28
2024/01/28 09:53:22;;;;;;;10.45;5.07;;;;;;;;;;5075896;28;20016;-28
2024/01/28 09:55:47;;;;;;;14.90;5.50;;;;;;;;;;5076279;28;20108;-28
2024/01/28 09:58:12;;;;;;;11.40;4.88;;;;;;;;;;5076445;28;20255;-28
2024/01/28 10:00:38;;;;;;;11.03;5.10;;;;;;;;;;5076399;28;20103;-28
2024/01/28 10:03:04;;;;;;;8.85;4.47;;;;;;;;;;5075888;28;20301;-29
2024/01/28 10:05:30;;;;;;;10.63;4.57;;;;;;;;;;5074759;28;20078;-29
2024/01/28 10:08:02;;;;;;;8.43;4.13;;;;;;;;;;5075936;28;20064;-28
2024/01/28 10:10:28;;;;;;;6.85;4.05;;;;;;;;;;5076227;28;20020;-29
2024/01/28 10:12:53;;;;;;;10.07;4.15;;;;;;;;;;5076007;28;20017;-29
2024/01/28 10:15:20;;;;;;;11.67;4.33;;;;;;;;;;5075877;28;20021;-29
2024/01/28 10:17:49;;;;;;;9.70;3.97;;;;;;;;;;5075843;28;20029;-28
2024/01/28 10:20:18;;;;;;;9.13;4.40;;;;;;;;;;5075751;28;20028;-29
2024/01/28 10:22:44;;;;;;;11.90;5.18;;;;;;;;;;5075678;28;20104;-28
2024/01/28 10:25:10;;;;;;;12.48;6.20;;;;;;;;;;5075935;28;20162;-29
2024/01/28 10:27:35;;;;;;;7.53;4.25;;;;;;;;;;5075735;28;20012;-28
2024/01/28 10:30:02;;;;;;;8.13;4.10;;;;;;;;;;5075832;28;20032;-28
2024/01/28 10:32:27;;;;;;;9.38;4.00;;;;;;;;;;5076452;28;20099;-28
2024/01/28 10:34:52;;;;;;;10.07;3.70;;;;;;;;;;5076311;28;20089;-28
2024/01/28 10:37:19;;;;;;;7.90;3.50;;;;;;;;;;5074171;28;20021;-28
2024/01/28 10:39:46;;;;;;;8.75;3.78;;;;;;;;;;5074916;28;20259;-28
2024/01/28 10:42:14;;;;;;;8.88;4.00;;;;;;;;;;5075517;28;20037;-28
2024/01/28 10:44:45;;;;;;;7.65;3.55;;;;;;;;;;5075540;28;20017;-28
2024/01/28 10:47:12;;;;;;;7.68;3.60;;;;;;;;;;5075401;28;20483;-28
2024/01/28 10:49:39;;;;;;;7.97;3.20;;;;;;;;;;5075479;28;20035;-28
2024/01/28 10:52:06;;;;;;;7.75;3.58;;;;;;;;;;5076252;28;20026;-29
2024/01/28 10:54:31;;;;;;;8.65;3.47;;;;;;;;;;5075487;28;20016;-28
2024/01/28 10:56:57;;;;;;;7.30;3.23;;;;;;;;;;5075217;28;20024;-29
2024/01/28 10:59:23;;;;;;;8.93;3.70;;;;;;;;;;5074843;28;20451;-28
2024/01/28 11:01:49;;;;;;;8.75;3.42;;;;;;;;;;5074833;28;20099;-28
2024/01/28 11:04:14;;;;;;;8.60;3.35;;;;;;;;;;5075254;28;20166;-28
2024/01/28 11:06:40;;;;;;;6.13;2.87;;;;;;;;;;5074881;28;20024;-28
2024/01/28 11:09:05;;;;;;;6.70;3.20;;;;;;;;;;5073619;28;20023;-28
2024/01/28 11:11:31;;;;;;;8.97;3.27;;;;;;;;;;5074911;28;20016;-28
2024/01/28 11:13:56;;;;;;;8.18;3.17;;;;;;;;;;5075104;28;20333;-28
2024/01/28 11:16:21;;;;;;;5.70;2.78;;;;;;;;;;5075363;28;20047;-29
2024/01/28 11:18:57;;;;;;;6.05;2.80;;;;;;;;;;5074643;28;20025;-28
2024/01/28 11:21:23;;;;;;;6.68;3.13;;;;;;;;;;5074384;28;20024;-28
2024/01/28 11:23:48;;;;;;;5.40;2.78;;;;;;;;;;5074940;28;20025;-29
2024/01/28 11:26:19;;;;;;;5.57;2.75;;;;;;;;;;5074471;28;20549;-29
2024/01/28 11:28:48;;;;;;;5.10;2.63;;;;;;;;;;5075047;28;20059;-29
2024/01/28 11:31:33;;;;;;;7.82;3.25;;;;;;;;;;5074741;28;20019;-28
2024/01/28 11:34:20;;;;;;;5.95;2.67;;;;;;;;;;5075108;28;20024;-29
2024/01/28 11:36:54;;;;;;;6.03;2.70;;;;;;;;;;5074896;28;20452;-29
2024/01/28 11:39:36;;;;;;;6.55;2.65;;;;;;;;;;5074367;28;20483;-29
2024/01/28 11:42:02;;;;;;;5.78;2.90;;;;;;;;;;5074287;28;20020;-28
2024/01/28 11:44:27;;;;;;;5.77;2.60;;;;;;;;;;5074842;28;20027;-28
2024/01/28 11:46:53;;;;;;;5.47;2.67;;;;;;;;;;5074481;28;20275;-29
2024/01/28 11:49:18;;;;;;;9.32;2.85;;;;;;;;;;5074147;28;20052;-28
2024/01/28 11:51:43;;;;;;;5.88;2.53;;;;;;;;;;5074376;28;20020;-29
2024/01/28 11:54:08;;;;;;;5.40;2.80;;;;;;;;;;5074421;28;20086;-29
2024/01/28 11:56:34;;;;;;;4.20;2.17;;;;;;;;;;5074030;28;20020;-29
2024/01/28 11:59:00;;;;;;;6.68;3.00;;;;;;;;;;5072765;28;20111;-29
2024/01/28 12:01:25;;;;;;;9.20;2.83;;;;;;;;;;5073903;28;20048;-29
2024/01/28 12:03:54;;;;;;;7.82;2.90;;;;;;;;;;5073713;28;20052;-29
2024/01/28 12:06:22;;;;;;;6.10;2.78;;;;;;;;;;5074401;28;20427;-28
2024/01/28 12:08:48;;;;;;;5.57;2.63;;;;;;;;;;5073356;28;20028;-28
2024/01/28 12:11:14;;;;;;;8.80;3.20;;;;;;;;;;5073141;28;20376;-28
2024/01/28 12:13:40;;;;;;;5.78;2.88;;;;;;;;;;5072165;28;20274;-28
2024/01/28 12:16:05;;;;;;;6.00;3.10;;;;;;;;;;5073962;28;20020;-28
2024/01/28 12:18:40;;;;;;;5.45;2.90;;;;;;;;;;5074223;28;20452;-28
2024/01/28 12:21:14;;;;;;;5.90;2.90;;;;;;;;;;5073877;28;20025;-28
2024/01/28 12:23:40;;;;;;;6.65;2.97;;;;;;;;;;5072461;28;20020;-29
2024/01/28 12:26:05;;;;;;;5.35;2.80;;;;;;;;;;5073635;28;20080;-28
2024/01/28 12:28:31;;;;;;;4.63;2.97;;;;;;;;;;5073906;28;20012;-29
2024/01/28 12:30:56;;;;;;;5.43;2.60;;;;;;;;;;5072301;28;20040;-29
2024/01/28 12:33:21;;;;;;;8.38;3.05;;;;;;;;;;5072246;28;20048;-29
2024/01/28 12:35:46;;;;;;;5.47;2.33;;;;;;;;;;5073764;28;20023;-29
2024/01/28 12:38:12;;;;;;;5.47;2.40;;;;;;;;;;5072329;28;20423;-29
2024/01/28 12:40:37;;;;;;;5.97;2.60;;;;;;;;;;5073693;28;20251;-29
2024/01/28 12:43:03;;;;;;;6.32;2.58;;;;;;;;;;5072138;28;20460;-29
2024/01/28 12:45:28;;;;;;;7.72;2.60;;;;;;;;;;5073302;28;20099;-28
2024/01/28 12:47:53;;;;;;;6.53;2.57;;;;;;;;;;5073463;28;20489;-29
2024/01/28 12:50:19;;;;;;;6.15;2.45;;;;;;;;;;5072269;28;20028;-28
2024/01/28 12:52:45;;;;;;;5.35;2.40;;;;;;;;;;5073324;28;20020;-29
2024/01/28 12:55:10;;;;;;;3.88;2.42;;;;;;;;;;5071983;28;20024;-29
2024/01/28 12:57:38;;;;;;;5.30;2.70;;;;;;;;;;5073283;28;20025;-29
2024/01/28 13:00:06;;;;;;;4.70;2.20;;;;;;;;;;5073283;28;20021;-29
2024/01/28 13:02:31;;;;;;;6.25;2.60;;;;;;;;;;5073263;28;20468;-28
2024/01/28 13:04:57;;;;;;;5.28;2.60;;;;;;;;;;5073658;28;20078;-28
2024/01/28 13:07:23;;;;;;;5.60;2.30;;;;;;;;;;5073255;28;20371;-29
2024/01/28 13:09:48;;;;;;;4.60;2.40;;;;;;;;;;5073088;28;20096;-29
2024/01/28 13:12:15;;;;;;;5.43;2.25;;;;;;;;;;5072944;28;20104;-28
2024/01/28 13:14:40;;;;;;;5.90;2.15;;;;;;;;;;5073201;28;20479;-28
2024/01/28 13:17:05;;;;;;;6.68;2.78;;;;;;;;;;5071559;28;20033;-28
2024/01/28 13:19:31;;;;;;;4.93;2.50;;;;;;;;;;5073414;28;20025;-29
2024/01/28 13:21:56;;;;;;;5.35;2.22;;;;;;;;;;5074124;28;20274;-28
2024/01/28 13:24:21;;;;;;;5.22;2.50;;;;;;;;;;5077421;28;20103;-28
2024/01/28 13:26:47;;;;;;;5.78;2.50;;;;;;;;;;5077080;28;20509;-29
2024/01/28 13:29:13;;;;;;;6.75;2.78;;;;;;;;;;5076840;28;20013;-28
2024/01/28 13:31:38;;;;;;;6.60;2.70;;;;;;;;;;5075533;28;20410;-28
2024/01/28 13:34:03;;;;;;;6.90;2.88;;;;;;;;;;5077308;28;20126;-28
2024/01/28 13:36:28;;;;;;;7.27;2.77;;;;;;;;;;5076696;28;20032;-28
2024/01/28 13:38:53;;;;;;;6.35;2.53;;;;;;;;;;5076712;28;20055;-28
2024/01/28 13:41:19;;;;;;;6.13;2.80;;;;;;;;;;5076878;28;20419;-28
2024/01/28 13:43:48;;;;;;;5.65;2.67;;;;;;;;;;5077049;28;20263;-27
2024/01/28 13:46:13;;;;;;;5.70;2.60;;;;;;;;;;5077015;28;20027;-28
2024/01/28 13:48:39;;;;;;;7.43;2.55;;;;;;;;;;5076784;28;20371;-27
2024/01/28 13:51:04;;;;;;;6.33;2.60;;;;;;;;;;5076733;28;20047;-28
2024/01/28 13:53:30;;;;;;;7.32;3.13;;;;;;;;;;5075171;28;20262;-28
2024/01/28 13:55:55;;;;;;;6.80;3.00;;;;;;;;;;5075076;28;20024;-28
2024/01/28 13:58:20;;;;;;;8.23;3.03;;;;;;;;;;5076667;28;20414;-28
2024/01/28 14:00:45;;;;;;;8.10;3.20;;;;;;;;;;5076321;28;20119;-28
2024/01/28 14:03:11;;;;;;;7.57;3.00;;;;;;;;;;5076067;28;20304;-29
2024/01/28 14:05:37;;;;;;;8.50;3.60;;;;;;;;;;5074866;28;20032;-27
2024/01/28 14:08:02;;;;;;;5.67;3.10;;;;;;;;;;5076667;28;20021;-28
2024/01/28 14:10:27;;;;;;;5.60;3.20;;;;;;;;;;5076655;28;20660;-27
2024/01/28 14:12:53;;;;;;;9.57;3.63;;;;;;;;;;5076537;28;20012;-28
2024/01/28 14:15:18;;;;;;;8.37;3.47;;;;;;;;;;5075963;28;20262;-27
2024/01/28 14:17:43;;;;;;;7.18;3.00;;;;;;;;;;5075868;28;20302;-28
2024/01/28 14:20:09;;;;;;;6.95;3.38;;;;;;;;;;5074374;28;20064;-28
2024/01/28 14:22:34;;;;;;;8.20;3.35;;;;;;;;;;5075565;28;20463;-28
2024/01/28 14:24:59;;;;;;;8.75;3.40;;;;;;;;;;5075767;28;20021;-27